Datum - Zeit
Döttingen
TemperaturTaupunktFeuchteSolar Wind aus
Richtung
Windböenaus
Richtung
Luftdruck
(QFF)
RegenRegen
Stärke
21.08.2019 - 00.00Uhr13.9 °C11.9 °C88 %0.0 W/m²1.5 km/hNord-NO4.0 km/hNord-NO1027.3 hPa0.0 mm0.0 mm/h
21.08.2019 - 00.05Uhr13.9 °C11.9 °C88 %0.0 W/m²0.0 km/hNord-NO0.0 km/hNorden1027.2 hPa0.0 mm0.0 mm/h
21.08.2019 - 00.10Uhr13.8 °C11.8 °C88 %0.0 W/m²0.0 km/hNord-NO0.0 km/hNorden1027.3 hPa0.0 mm0.0 mm/h
21.08.2019 - 00.15Uhr13.8 °C11.8 °C88 %0.0 W/m²0.0 km/hNord-NO0.0 km/hNorden1027.2 hPa0.0 mm0.0 mm/h
21.08.2019 - 00.20Uhr13.8 °C11.8 °C88 %0.0 W/m²0.0 km/hNord-NO0.0 km/hNorden1027.2 hPa0.0 mm0.0 mm/h
21.08.2019 - 00.25Uhr13.8 °C11.8 °C88 %0.0 W/m²0.0 km/hNord-NO0.0 km/hNorden1027.2 hPa0.0 mm0.0 mm/h
21.08.2019 - 00.30Uhr13.9 °C11.9 °C88 %0.0 W/m²0.5 km/hNord-NO1.8 km/hNord-NO1027.1 hPa0.0 mm0.0 mm/h
21.08.2019 - 00.35Uhr13.9 °C11.9 °C88 %0.0 W/m²2.6 km/hNord-NO4.0 km/hNord-NO1027.0 hPa0.0 mm0.0 mm/h
21.08.2019 - 00.40Uhr13.9 °C11.9 °C88 %0.0 W/m²0.0 km/hNord-NO0.0 km/hNorden1027.0 hPa0.0 mm0.0 mm/h
21.08.2019 - 00.45Uhr13.9 °C11.9 °C88 %0.0 W/m²0.0 km/hNord-NO0.0 km/hNorden1027.0 hPa0.0 mm0.0 mm/h
21.08.2019 - 00.50Uhr13.9 °C11.9 °C88 %0.0 W/m²0.0 km/hNord-NO0.0 km/hNorden1027.0 hPa0.0 mm0.0 mm/h
21.08.2019 - 00.55Uhr14.1 °C12.1 °C88 %0.0 W/m²2.7 km/hNord-NO5.8 km/hNord-NO1027.1 hPa0.0 mm0.0 mm/h
21.08.2019 - 01.00Uhr13.9 °C11.9 °C88 %0.0 W/m²2.8 km/hNord-NO5.8 km/hNord-NO1027.2 hPa0.0 mm0.0 mm/h
21.08.2019 - 01.05Uhr13.9 °C11.9 °C88 %0.0 W/m²0.7 km/hNord-NO1.8 km/hNord-NO1027.2 hPa0.0 mm0.0 mm/h
21.08.2019 - 01.10Uhr13.9 °C11.9 °C88 %0.0 W/m²0.3 km/hNord-NO1.8 km/hNord-NO1027.1 hPa0.0 mm0.0 mm/h
21.08.2019 - 01.15Uhr13.8 °C11.8 °C88 %0.0 W/m²0.0 km/hNord-NO0.0 km/hNorden1027.0 hPa0.0 mm0.0 mm/h
21.08.2019 - 01.20Uhr13.8 °C11.8 °C88 %0.0 W/m²0.0 km/hNord-NO0.0 km/hNorden1027.0 hPa0.0 mm0.0 mm/h
21.08.2019 - 01.25Uhr13.8 °C11.8 °C88 %0.0 W/m²0.0 km/hNord-NO0.0 km/hNorden1027.0 hPa0.0 mm0.0 mm/h
21.08.2019 - 01.30Uhr13.8 °C11.8 °C88 %0.0 W/m²0.0 km/hNord-NO0.0 km/hNorden1026.9 hPa0.0 mm0.0 mm/h
21.08.2019 - 01.35Uhr13.8 °C11.8 °C88 %0.0 W/m²0.0 km/hNord-NO0.0 km/hNorden1026.9 hPa0.0 mm0.0 mm/h
21.08.2019 - 01.40Uhr13.7 °C11.7 °C88 %0.0 W/m²0.2 km/hNord-NO1.8 km/hNord-NO1027.0 hPa0.0 mm0.0 mm/h
21.08.2019 - 01.45Uhr13.7 °C11.7 °C88 %0.0 W/m²1.1 km/hNord-NO4.0 km/hNord-NO1027.0 hPa0.0 mm0.0 mm/h
21.08.2019 - 01.50Uhr13.7 °C11.7 °C88 %0.0 W/m²0.7 km/hNord-NO1.8 km/hNord-NO1026.9 hPa0.0 mm0.0 mm/h
21.08.2019 - 01.55Uhr13.4 °C11.5 °C88 %0.0 W/m²1.8 km/hNord-NO4.0 km/hNord-NO1027.0 hPa0.0 mm0.0 mm/h
21.08.2019 - 02.00Uhr13.4 °C11.5 °C88 %0.0 W/m²1.6 km/hNord-NO4.0 km/hNord-NO1027.0 hPa0.0 mm0.0 mm/h
21.08.2019 - 02.05Uhr13.4 °C11.5 °C88 %0.0 W/m²0.9 km/hNord-NO4.0 km/hNord-NO1027.0 hPa0.0 mm0.0 mm/h
21.08.2019 - 02.10Uhr13.4 °C11.5 °C88 %0.0 W/m²0.0 km/hNord-NO0.0 km/hNorden1027.0 hPa0.0 mm0.0 mm/h
21.08.2019 - 02.15Uhr13.4 °C11.5 °C88 %0.0 W/m²0.0 km/hNord-NO0.0 km/hNorden1027.0 hPa0.0 mm0.0 mm/h
21.08.2019 - 02.20Uhr13.4 °C11.5 °C88 %0.0 W/m²0.4 km/hNord-NO1.8 km/hNord-NO1027.0 hPa0.0 mm0.0 mm/h
21.08.2019 - 02.25Uhr13.4 °C11.5 °C88 %0.0 W/m²0.0 km/hNord-NO0.0 km/hNorden1027.0 hPa0.0 mm0.0 mm/h
21.08.2019 - 02.30Uhr13.3 °C11.4 °C88 %0.0 W/m²0.0 km/hNord-NO0.0 km/hNorden1027.0 hPa0.0 mm0.0 mm/h
21.08.2019 - 02.35Uhr13.1 °C11.2 °C88 %0.0 W/m²0.0 km/hNord-NO0.0 km/hNorden1027.0 hPa0.0 mm0.0 mm/h
21.08.2019 - 02.40Uhr13.2 °C11.3 °C88 %0.0 W/m²0.0 km/hNord-NO0.0 km/hNorden1027.1 hPa0.0 mm0.0 mm/h
21.08.2019 - 02.45Uhr13.1 °C11.2 °C88 %0.0 W/m²0.3 km/hNord-NO1.8 km/hNord-NO1027.0 hPa0.0 mm0.0 mm/h
21.08.2019 - 02.50Uhr13.0 °C11.1 °C88 %0.0 W/m²0.0 km/hNord-NO0.0 km/hNorden1027.1 hPa0.0 mm0.0 mm/h
21.08.2019 - 02.55Uhr12.9 °C11.0 °C88 %0.0 W/m²0.0 km/hNord-NO0.0 km/hNorden1027.1 hPa0.0 mm0.0 mm/h
21.08.2019 - 03.00Uhr12.8 °C10.9 °C88 %0.0 W/m²0.0 km/hNord-NO0.0 km/hNorden1027.1 hPa0.0 mm0.0 mm/h
21.08.2019 - 03.05Uhr12.7 °C10.8 °C88 %0.0 W/m²0.0 km/hNord-NO0.0 km/hNorden1027.1 hPa0.0 mm0.0 mm/h
21.08.2019 - 03.10Uhr12.7 °C10.8 °C88 %0.0 W/m²0.0 km/hNord-NO0.0 km/hNorden1027.1 hPa0.0 mm0.0 mm/h
21.08.2019 - 03.15Uhr12.7 °C10.8 °C88 %0.0 W/m²0.0 km/hNord-NO0.0 km/hNorden1027.1 hPa0.0 mm0.0 mm/h
21.08.2019 - 03.20Uhr12.7 °C10.8 °C88 %0.0 W/m²0.0 km/hNord-NO0.0 km/hNorden1027.1 hPa0.0 mm0.0 mm/h